EGQM

Boulmer Airfield Airport

Boulmer, United Kingdom
METAR EGQM 151450Z AUTO 21016KT 9999 FEW039/// SCT048/// 23/14 Q1007
Observed Flight Rules
Aug-15 @ 14:50 UTC (11 minutes ago) Visual Flight Rules
Wind Visibility Clouds
210° at 16 knots 10,000+ meters
  • Few at 3,900' AGL
  • Scattered at 4,800' AGL
Temperatures Readings
Current 23°C / 73°F
Dewpoint 14°C / 57°F
Humidity 57%
Altimeter 29.73" Hg
Pressure 1007 hPa
Elevation 23
METAR EGQM 151450Z AUTO 21016KT 9999 FEW039/// SCT048/// 23/14 Q1007
Observed Flight Rules
Aug-15 @ 14:50 UTC
(11 minutes ago)
VFR
Wind Visibility
210° at 16 knots 10,000+ meters
Clouds
  • Few at 3,900' AGL
  • Scattered at 4,800' AGL
Temperature Dewpoint
23°C / 73°F 14°C / 57°F
Humidity Altimeter Pressure
57% 29.73" Hg 1007 hPa